Fort Wayne International Airport
KFWA : now visible

Airfield :











YOU CAN JOIN US ON...

 
LOGIN :

Register | Disclaimer

   EN    FR    IT 

 









Legend :    VFR   Marginal VFR   IFR   Intensive IFR   Very Intensive IFR
Visi :
Ceiling :
>= 8 km
>= 3000ft
5 to 8 km
1000 to 3000 ft
1500m to 5 km
500 to 1000 ft
800 to 1500m
200 to 500 ft
< 800m
< 200 ft
Symbols :   Thunderstorms  Fog  Heavy snow  Heavy precipitations  Wind > 20 kt






- Airport Elevation : 814 ft
- IATA code : FWA


KFWA - Fort Wayne International

CURRENT METAR :
  • 030854Z 20005KT 9SM BCFG FEW110 FEW140 SCT240 18/17 A2994 RMK AO2 SLP133 T01780172 55006 $

EXPIRED METARs :
  • 030754Z 20003KT 8SM BCFG FEW080 FEW120 SCT180 17/17 A2994 RMK AO2 SLP133 T01720167 $
  • 030654Z 20004KT 10SM FEW026 FEW120 SCT200 18/17 A2995 RMK AO2 SLP138 T01780172 $

TAF KFWA
Valid from the 03 at 06:00 until the 04 at 06:00 UTC


030526Z 0306/0406 22004KT P6SM VCSH BKN100
FM030800 22004KT P6SM BKN080
FM031000 22004KT 5SM BR BKN035
FM031400 24005KT P6SM BKN060
FM032100 31005KT P6SM VCTS BKN040CB
FM040000 36005KT P6SM BKN050
KZAU FIR / North America



MET'MAP, your aeronautical weather chart ! - Copyright ORBIFLY December 2007 - Disclaimer

ORBIFLY MET'MAP TEAM :

Programming & Development : Alexandra Zaïnal
Concept & original design : Baudouin d'Aumeries
Assistance for programming : Marc-Olivier Méhu
Technical & hardware support : Manuel Goepfert

Contact : metmap@orbifly.com




SOURCES & CREDITS :

   NOAA       Earth
Advisory